sensor_id;sensor_type;location;lat;lon;timestamp;temperature;humidity
12043;DHT22;6082;49.306;12.862;2023-06-26T00:01:17;18.70;99.90
12043;DHT22;6082;49.306;12.862;2023-06-26T00:03:46;18.60;99.90
12043;DHT22;6082;49.306;12.862;2023-06-26T00:06:12;18.60;99.90
12043;DHT22;6082;49.306;12.862;2023-06-26T00:08:38;18.50;99.90
12043;DHT22;6082;49.306;12.862;2023-06-26T00:11:04;18.60;99.90
12043;DHT22;6082;49.306;12.862;2023-06-26T00:13:29;18.50;99.90
12043;DHT22;6082;49.306;12.862;2023-06-26T00:15:55;18.40;99.90
12043;DHT22;6082;49.306;12.862;2023-06-26T00:18:21;18.40;99.90
12043;DHT22;6082;49.306;12.862;2023-06-26T00:20:48;18.40;99.90
12043;DHT22;6082;49.306;12.862;2023-06-26T00:23:16;18.40;99.90
12043;DHT22;6082;49.306;12.862;2023-06-26T00:25:43;18.30;99.90
12043;DHT22;6082;49.306;12.862;2023-06-26T00:28:08;18.30;99.90
12043;DHT22;6082;49.306;12.862;2023-06-26T00:30:34;18.30;99.90
12043;DHT22;6082;49.306;12.862;2023-06-26T00:33:00;18.20;99.90
12043;DHT22;6082;49.306;12.862;2023-06-26T00:35:26;18.20;99.90
12043;DHT22;6082;49.306;12.862;2023-06-26T00:37:52;18.10;99.90
12043;DHT22;6082;49.306;12.862;2023-06-26T00:40:17;18.10;99.90
12043;DHT22;6082;49.306;12.862;2023-06-26T00:42:43;18.10;99.90
12043;DHT22;6082;49.306;12.862;2023-06-26T00:45:09;18.00;99.90
12043;DHT22;6082;49.306;12.862;2023-06-26T00:47:35;18.00;99.90
12043;DHT22;6082;49.306;12.862;2023-06-26T00:50:01;18.00;99.90
12043;DHT22;6082;49.306;12.862;2023-06-26T00:52:28;18.00;99.90
12043;DHT22;6082;49.306;12.862;2023-06-26T00:54:54;17.90;99.90
12043;DHT22;6082;49.306;12.862;2023-06-26T00:57:20;17.90;99.90
12043;DHT22;6082;49.306;12.862;2023-06-26T00:59:46;17.90;99.90
12043;DHT22;6082;49.306;12.862;2023-06-26T01:02:12;17.80;99.90
12043;DHT22;6082;49.306;12.862;2023-06-26T01:04:38;17.80;99.90
12043;DHT22;6082;49.306;12.862;2023-06-26T01:07:12;17.80;99.90
12043;DHT22;6082;49.306;12.862;2023-06-26T01:09:38;17.70;99.90
12043;DHT22;6082;49.306;12.862;2023-06-26T01:12:04;17.70;99.90
12043;DHT22;6082;49.306;12.862;2023-06-26T01:14:30;17.70;99.90
12043;DHT22;6082;49.306;12.862;2023-06-26T01:16:59;17.70;99.90
12043;DHT22;6082;49.306;12.862;2023-06-26T01:19:28;17.60;99.90
12043;DHT22;6082;49.306;12.862;2023-06-26T01:24:48;17.60;99.90
12043;DHT22;6082;49.306;12.862;2023-06-26T01:27:21;17.50;99.90
12043;DHT22;6082;49.306;12.862;2023-06-26T01:29:50;17.50;99.90
12043;DHT22;6082;49.306;12.862;2023-06-26T01:32:17;17.50;99.90
12043;DHT22;6082;49.306;12.862;2023-06-26T01:34:43;17.40;99.90
12043;DHT22;6082;49.306;12.862;2023-06-26T01:37:10;17.40;99.90
12043;DHT22;6082;49.306;12.862;2023-06-26T01:39:35;17.40;99.90
12043;DHT22;6082;49.306;12.862;2023-06-26T01:42:01;17.40;99.90
12043;DHT22;6082;49.306;12.862;2023-06-26T01:44:29;17.30;99.90
12043;DHT22;6082;49.306;12.862;2023-06-26T01:47:03;17.30;99.90
12043;DHT22;6082;49.306;12.862;2023-06-26T01:49:49;17.30;99.90
12043;DHT22;6082;49.306;12.862;2023-06-26T01:57:17;17.20;99.90
12043;DHT22;6082;49.306;12.862;2023-06-26T01:59:46;17.20;99.90
12043;DHT22;6082;49.306;12.862;2023-06-26T02:02:12;17.20;99.90
12043;DHT22;6082;49.306;12.862;2023-06-26T02:04:39;17.10;99.90
12043;DHT22;6082;49.306;12.862;2023-06-26T02:07:08;17.10;99.90
12043;DHT22;6082;49.306;12.862;2023-06-26T02:09:35;17.00;99.90
12043;DHT22;6082;49.306;12.862;2023-06-26T02:12:00;17.00;99.90
12043;DHT22;6082;49.306;12.862;2023-06-26T02:14:26;17.00;99.90
12043;DHT22;6082;49.306;12.862;2023-06-26T02:16:52;17.00;99.90
12043;DHT22;6082;49.306;12.862;2023-06-26T02:19:18;17.00;99.90
12043;DHT22;6082;49.306;12.862;2023-06-26T02:21:48;17.00;99.90
12043;DHT22;6082;49.306;12.862;2023-06-26T02:24:14;17.00;99.90
12043;DHT22;6082;49.306;12.862;2023-06-26T02:26:40;16.90;99.90
12043;DHT22;6082;49.306;12.862;2023-06-26T02:29:06;16.90;99.90
12043;DHT22;6082;49.306;12.862;2023-06-26T02:31:32;16.90;99.90
12043;DHT22;6082;49.306;12.862;2023-06-26T02:33:58;16.90;99.90
12043;DHT22;6082;49.306;12.862;2023-06-26T02:36:23;16.90;99.90
12043;DHT22;6082;49.306;12.862;2023-06-26T02:38:49;16.80;99.90
12043;DHT22;6082;49.306;12.862;2023-06-26T02:41:15;16.80;99.90
12043;DHT22;6082;49.306;12.862;2023-06-26T02:43:40;16.80;99.90
12043;DHT22;6082;49.306;12.862;2023-06-26T02:46:06;16.70;99.90
12043;DHT22;6082;49.306;12.862;2023-06-26T02:48:32;16.70;99.90
12043;DHT22;6082;49.306;12.862;2023-06-26T02:50:59;16.70;99.90
12043;DHT22;6082;49.306;12.862;2023-06-26T02:53:24;16.60;99.90
12043;DHT22;6082;49.306;12.862;2023-06-26T02:55:50;16.60;99.90
12043;DHT22;6082;49.306;12.862;2023-06-26T02:58:16;16.60;99.90
12043;DHT22;6082;49.306;12.862;2023-06-26T03:00:42;16.60;99.90
12043;DHT22;6082;49.306;12.862;2023-06-26T03:03:09;16.50;99.90
12043;DHT22;6082;49.306;12.862;2023-06-26T03:05:34;16.50;99.90
12043;DHT22;6082;49.306;12.862;2023-06-26T03:08:01;16.50;99.90
12043;DHT22;6082;49.306;12.862;2023-06-26T03:10:27;16.50;99.90
12043;DHT22;6082;49.306;12.862;2023-06-26T03:12:53;16.50;99.90
12043;DHT22;6082;49.306;12.862;2023-06-26T03:15:18;16.40;99.90
12043;DHT22;6082;49.306;12.862;2023-06-26T03:17:45;16.40;99.90
12043;DHT22;6082;49.306;12.862;2023-06-26T03:20:10;16.40;99.90
12043;DHT22;6082;49.306;12.862;2023-06-26T03:22:36;16.40;99.90
12043;DHT22;6082;49.306;12.862;2023-06-26T03:25:03;16.40;99.90
12043;DHT22;6082;49.306;12.862;2023-06-26T03:27:28;16.40;99.90
12043;DHT22;6082;49.306;12.862;2023-06-26T03:29:54;16.30;99.90
12043;DHT22;6082;49.306;12.862;2023-06-26T03:32:20;16.30;99.90
12043;DHT22;6082;49.306;12.862;2023-06-26T03:34:46;16.30;99.90
12043;DHT22;6082;49.306;12.862;2023-06-26T03:37:11;16.30;99.90
12043;DHT22;6082;49.306;12.862;2023-06-26T03:39:37;16.20;99.90
12043;DHT22;6082;49.306;12.862;2023-06-26T03:42:03;16.30;99.90
12043;DHT22;6082;49.306;12.862;2023-06-26T03:44:29;16.30;99.90
12043;DHT22;6082;49.306;12.862;2023-06-26T03:46:54;16.30;99.90
12043;DHT22;6082;49.306;12.862;2023-06-26T03:49:20;16.30;99.90
12043;DHT22;6082;49.306;12.862;2023-06-26T03:51:46;16.30;99.90
12043;DHT22;6082;49.306;12.862;2023-06-26T03:54:12;16.30;99.90
12043;DHT22;6082;49.306;12.862;2023-06-26T03:56:38;16.30;99.90
12043;DHT22;6082;49.306;12.862;2023-06-26T03:59:04;16.30;99.90
12043;DHT22;6082;49.306;12.862;2023-06-26T04:01:29;16.30;99.90
12043;DHT22;6082;49.306;12.862;2023-06-26T04:03:55;16.30;99.90
12043;DHT22;6082;49.306;12.862;2023-06-26T04:06:21;16.30;99.90
12043;DHT22;6082;49.306;12.862;2023-06-26T04:08:47;16.30;99.90
12043;DHT22;6082;49.306;12.862;2023-06-26T04:11:13;16.30;99.90
12043;DHT22;6082;49.306;12.862;2023-06-26T04:13:39;16.30;99.90
12043;DHT22;6082;49.306;12.862;2023-06-26T04:16:05;16.30;99.90
12043;DHT22;6082;49.306;12.862;2023-06-26T04:18:32;16.30;99.90
12043;DHT22;6082;49.306;12.862;2023-06-26T04:21:12;16.30;99.90
12043;DHT22;6082;49.306;12.862;2023-06-26T04:23:39;16.40;99.90
12043;DHT22;6082;49.306;12.862;2023-06-26T04:26:06;16.40;99.90
12043;DHT22;6082;49.306;12.862;2023-06-26T04:28:32;16.40;99.90
12043;DHT22;6082;49.306;12.862;2023-06-26T04:30:59;16.30;99.90
12043;DHT22;6082;49.306;12.862;2023-06-26T04:33:26;16.40;99.90
12043;DHT22;6082;49.306;12.862;2023-06-26T04:35:52;16.40;99.90
12043;DHT22;6082;49.306;12.862;2023-06-26T04:38:19;16.40;99.90
12043;DHT22;6082;49.306;12.862;2023-06-26T04:40:45;16.40;99.90
12043;DHT22;6082;49.306;12.862;2023-06-26T04:43:11;16.40;99.90
12043;DHT22;6082;49.306;12.862;2023-06-26T04:45:37;16.50;99.90
12043;DHT22;6082;49.306;12.862;2023-06-26T04:48:03;16.50;99.90
12043;DHT22;6082;49.306;12.862;2023-06-26T04:50:30;16.50;99.90
12043;DHT22;6082;49.306;12.862;2023-06-26T04:52:56;16.50;99.90
12043;DHT22;6082;49.306;12.862;2023-06-26T04:55:24;16.50;99.90
12043;DHT22;6082;49.306;12.862;2023-06-26T04:57:50;16.60;99.90
12043;DHT22;6082;49.306;12.862;2023-06-26T05:00:16;16.70;99.90
12043;DHT22;6082;49.306;12.862;2023-06-26T05:02:42;16.80;99.90
12043;DHT22;6082;49.306;12.862;2023-06-26T05:05:08;16.80;99.90
12043;DHT22;6082;49.306;12.862;2023-06-26T05:07:34;16.80;99.90
12043;DHT22;6082;49.306;12.862;2023-06-26T05:10:00;16.90;99.90
12043;DHT22;6082;49.306;12.862;2023-06-26T05:12:25;16.90;99.90
12043;DHT22;6082;49.306;12.862;2023-06-26T05:14:51;16.90;99.90
12043;DHT22;6082;49.306;12.862;2023-06-26T05:17:18;16.90;99.90
12043;DHT22;6082;49.306;12.862;2023-06-26T05:19:44;17.00;99.90
12043;DHT22;6082;49.306;12.862;2023-06-26T05:22:11;17.00;99.90
12043;DHT22;6082;49.306;12.862;2023-06-26T05:24:38;17.10;99.90
12043;DHT22;6082;49.306;12.862;2023-06-26T05:27:05;17.20;99.90
12043;DHT22;6082;49.306;12.862;2023-06-26T05:29:32;17.20;99.90
12043;DHT22;6082;49.306;12.862;2023-06-26T05:31:58;17.30;99.90
12043;DHT22;6082;49.306;12.862;2023-06-26T05:34:25;17.40;99.90
12043;DHT22;6082;49.306;12.862;2023-06-26T05:36:57;17.40;99.90
12043;DHT22;6082;49.306;12.862;2023-06-26T05:39:23;17.50;99.90
12043;DHT22;6082;49.306;12.862;2023-06-26T05:41:50;17.60;99.90
12043;DHT22;6082;49.306;12.862;2023-06-26T05:44:16;17.70;99.90
12043;DHT22;6082;49.306;12.862;2023-06-26T05:46:42;17.70;99.90
12043;DHT22;6082;49.306;12.862;2023-06-26T05:49:08;17.80;99.90
12043;DHT22;6082;49.306;12.862;2023-06-26T05:51:34;17.90;99.90
12043;DHT22;6082;49.306;12.862;2023-06-26T05:54:00;18.00;99.90
12043;DHT22;6082;49.306;12.862;2023-06-26T05:56:27;18.20;99.90
12043;DHT22;6082;49.306;12.862;2023-06-26T05:58:53;18.30;99.90
12043;DHT22;6082;49.306;12.862;2023-06-26T06:01:20;18.50;99.90
12043;DHT22;6082;49.306;12.862;2023-06-26T06:03:45;18.60;99.90
12043;DHT22;6082;49.306;12.862;2023-06-26T06:06:11;18.70;99.90
12043;DHT22;6082;49.306;12.862;2023-06-26T06:08:37;18.90;99.90
12043;DHT22;6082;49.306;12.862;2023-06-26T06:11:03;19.00;99.90
12043;DHT22;6082;49.306;12.862;2023-06-26T06:13:28;19.10;99.90
12043;DHT22;6082;49.306;12.862;2023-06-26T06:15:54;19.30;99.90
12043;DHT22;6082;49.306;12.862;2023-06-26T06:18:20;19.30;99.90
12043;DHT22;6082;49.306;12.862;2023-06-26T06:20:47;19.40;99.90
12043;DHT22;6082;49.306;12.862;2023-06-26T06:23:12;19.50;99.90
12043;DHT22;6082;49.306;12.862;2023-06-26T06:25:38;19.60;99.90
12043;DHT22;6082;49.306;12.862;2023-06-26T06:28:04;19.70;99.90
12043;DHT22;6082;49.306;12.862;2023-06-26T06:30:30;19.80;99.90
12043;DHT22;6082;49.306;12.862;2023-06-26T06:32:58;19.90;99.90
12043;DHT22;6082;49.306;12.862;2023-06-26T06:35:23;20.10;99.90
12043;DHT22;6082;49.306;12.862;2023-06-26T06:37:50;20.20;99.90
12043;DHT22;6082;49.306;12.862;2023-06-26T06:40:15;20.20;99.90
12043;DHT22;6082;49.306;12.862;2023-06-26T06:42:41;20.40;99.90
12043;DHT22;6082;49.306;12.862;2023-06-26T06:45:07;20.50;99.90
12043;DHT22;6082;49.306;12.862;2023-06-26T06:47:34;20.60;99.90
12043;DHT22;6082;49.306;12.862;2023-06-26T06:50:00;20.70;99.90
12043;DHT22;6082;49.306;12.862;2023-06-26T06:52:38;20.80;99.90
12043;DHT22;6082;49.306;12.862;2023-06-26T06:55:04;20.90;99.90
12043;DHT22;6082;49.306;12.862;2023-06-26T06:57:38;21.00;99.90
12043;DHT22;6082;49.306;12.862;2023-06-26T07:00:11;21.00;99.90
12043;DHT22;6082;49.306;12.862;2023-06-26T07:02:38;21.10;99.90
12043;DHT22;6082;49.306;12.862;2023-06-26T07:05:05;21.20;99.90
12043;DHT22;6082;49.306;12.862;2023-06-26T07:07:35;21.30;99.90
12043;DHT22;6082;49.306;12.862;2023-06-26T07:10:04;21.40;99.90
12043;DHT22;6082;49.306;12.862;2023-06-26T07:12:30;21.50;99.90
12043;DHT22;6082;49.306;12.862;2023-06-26T07:14:56;21.60;99.90
12043;DHT22;6082;49.306;12.862;2023-06-26T07:17:23;21.70;99.90
12043;DHT22;6082;49.306;12.862;2023-06-26T07:19:49;21.80;99.90
12043;DHT22;6082;49.306;12.862;2023-06-26T07:22:15;21.90;99.90
12043;DHT22;6082;49.306;12.862;2023-06-26T07:24:41;22.10;99.90
12043;DHT22;6082;49.306;12.862;2023-06-26T07:27:07;22.10;99.90
12043;DHT22;6082;49.306;12.862;2023-06-26T07:29:33;22.20;99.90
12043;DHT22;6082;49.306;12.862;2023-06-26T07:31:59;22.30;99.90
12043;DHT22;6082;49.306;12.862;2023-06-26T07:34:24;22.40;99.90
12043;DHT22;6082;49.306;12.862;2023-06-26T07:36:50;22.50;99.90
12043;DHT22;6082;49.306;12.862;2023-06-26T07:39:16;22.60;99.90
12043;DHT22;6082;49.306;12.862;2023-06-26T07:41:42;22.70;99.90
12043;DHT22;6082;49.306;12.862;2023-06-26T07:44:07;22.80;99.90
12043;DHT22;6082;49.306;12.862;2023-06-26T07:46:33;22.90;99.90
12043;DHT22;6082;49.306;12.862;2023-06-26T07:48:59;22.90;99.90
12043;DHT22;6082;49.306;12.862;2023-06-26T07:51:24;23.00;99.90
12043;DHT22;6082;49.306;12.862;2023-06-26T07:53:50;23.20;99.90
12043;DHT22;6082;49.306;12.862;2023-06-26T07:56:17;23.20;99.90
12043;DHT22;6082;49.306;12.862;2023-06-26T07:58:43;23.30;99.90
12043;DHT22;6082;49.306;12.862;2023-06-26T08:01:08;23.40;99.90
12043;DHT22;6082;49.306;12.862;2023-06-26T08:03:34;23.50;99.90
12043;DHT22;6082;49.306;12.862;2023-06-26T08:06:00;23.60;99.90
12043;DHT22;6082;49.306;12.862;2023-06-26T08:08:26;23.60;99.90
12043;DHT22;6082;49.306;12.862;2023-06-26T08:10:51;23.80;99.90
12043;DHT22;6082;49.306;12.862;2023-06-26T08:13:17;23.90;99.90
12043;DHT22;6082;49.306;12.862;2023-06-26T08:15:43;24.00;99.90
12043;DHT22;6082;49.306;12.862;2023-06-26T08:18:09;24.10;99.90
12043;DHT22;6082;49.306;12.862;2023-06-26T08:20:34;24.20;99.90
12043;DHT22;6082;49.306;12.862;2023-06-26T08:23:03;24.30;99.90
12043;DHT22;6082;49.306;12.862;2023-06-26T08:25:31;24.30;99.90
12043;DHT22;6082;49.306;12.862;2023-06-26T08:27:57;24.40;99.90
12043;DHT22;6082;49.306;12.862;2023-06-26T08:30:23;24.40;99.90
12043;DHT22;6082;49.306;12.862;2023-06-26T08:32:56;24.50;99.90
12043;DHT22;6082;49.306;12.862;2023-06-26T08:35:22;24.70;99.90
12043;DHT22;6082;49.306;12.862;2023-06-26T08:37:48;24.80;99.90
12043;DHT22;6082;49.306;12.862;2023-06-26T08:40:17;24.90;99.90
12043;DHT22;6082;49.306;12.862;2023-06-26T08:42:43;24.90;99.90
12043;DHT22;6082;49.306;12.862;2023-06-26T08:45:09;25.00;99.90
12043;DHT22;6082;49.306;12.862;2023-06-26T08:47:35;25.10;99.90
12043;DHT22;6082;49.306;12.862;2023-06-26T08:50:13;25.20;99.90
12043;DHT22;6082;49.306;12.862;2023-06-26T08:52:52;25.20;99.90
12043;DHT22;6082;49.306;12.862;2023-06-26T08:55:19;25.30;99.90
12043;DHT22;6082;49.306;12.862;2023-06-26T08:57:47;25.60;99.90
12043;DHT22;6082;49.306;12.862;2023-06-26T09:00:13;25.50;99.90
12043;DHT22;6082;49.306;12.862;2023-06-26T09:02:40;25.50;99.90
12043;DHT22;6082;49.306;12.862;2023-06-26T09:05:09;25.70;99.90
12043;DHT22;6082;49.306;12.862;2023-06-26T09:07:36;25.80;99.90
12043;DHT22;6082;49.306;12.862;2023-06-26T09:10:02;25.90;99.90
12043;DHT22;6082;49.306;12.862;2023-06-26T09:12:28;25.90;99.90
12043;DHT22;6082;49.306;12.862;2023-06-26T09:14:55;26.00;99.90
12043;DHT22;6082;49.306;12.862;2023-06-26T09:17:26;26.00;99.90
12043;DHT22;6082;49.306;12.862;2023-06-26T09:19:54;26.20;99.90
12043;DHT22;6082;49.306;12.862;2023-06-26T09:22:20;26.30;99.90
12043;DHT22;6082;49.306;12.862;2023-06-26T09:24:46;26.30;99.90
12043;DHT22;6082;49.306;12.862;2023-06-26T09:27:12;26.40;99.90
12043;DHT22;6082;49.306;12.862;2023-06-26T09:29:38;26.40;99.90
12043;DHT22;6082;49.306;12.862;2023-06-26T09:32:04;26.40;99.90
12043;DHT22;6082;49.306;12.862;2023-06-26T09:34:31;26.60;99.90
12043;DHT22;6082;49.306;12.862;2023-06-26T09:36:58;26.60;99.90
12043;DHT22;6082;49.306;12.862;2023-06-26T09:39:24;26.70;99.90
12043;DHT22;6082;49.306;12.862;2023-06-26T09:41:50;26.70;99.90
12043;DHT22;6082;49.306;12.862;2023-06-26T09:44:16;26.80;99.90
12043;DHT22;6082;49.306;12.862;2023-06-26T09:46:45;26.90;99.90
12043;DHT22;6082;49.306;12.862;2023-06-26T09:49:12;26.90;99.90
12043;DHT22;6082;49.306;12.862;2023-06-26T09:51:40;27.00;99.30
12043;DHT22;6082;49.306;12.862;2023-06-26T09:54:06;27.00;99.30
12043;DHT22;6082;49.306;12.862;2023-06-26T09:56:33;27.10;99.80
12043;DHT22;6082;49.306;12.862;2023-06-26T09:59:01;27.10;99.60
12043;DHT22;6082;49.306;12.862;2023-06-26T10:01:28;27.20;99.90
12043;DHT22;6082;49.306;12.862;2023-06-26T10:03:54;27.20;99.80
12043;DHT22;6082;49.306;12.862;2023-06-26T10:06:35;27.30;99.90
12043;DHT22;6082;49.306;12.862;2023-06-26T10:09:03;27.40;99.10
12043;DHT22;6082;49.306;12.862;2023-06-26T10:11:41;27.50;99.40
12043;DHT22;6082;49.306;12.862;2023-06-26T10:14:11;27.60;98.80
12043;DHT22;6082;49.306;12.862;2023-06-26T10:16:39;27.80;98.80
12043;DHT22;6082;49.306;12.862;2023-06-26T10:19:08;27.90;98.60
12043;DHT22;6082;49.306;12.862;2023-06-26T10:21:37;27.90;98.00
12043;DHT22;6082;49.306;12.862;2023-06-26T10:24:05;27.90;98.00
12043;DHT22;6082;49.306;12.862;2023-06-26T10:26:35;28.00;98.40
12043;DHT22;6082;49.306;12.862;2023-06-26T10:29:03;28.00;96.80
12043;DHT22;6082;49.306;12.862;2023-06-26T10:31:30;28.00;95.80
12043;DHT22;6082;49.306;12.862;2023-06-26T10:33:57;28.10;95.90
12043;DHT22;6082;49.306;12.862;2023-06-26T10:36:32;28.10;96.80
12043;DHT22;6082;49.306;12.862;2023-06-26T10:39:03;28.10;96.40
12043;DHT22;6082;49.306;12.862;2023-06-26T10:41:41;28.20;96.20
12043;DHT22;6082;49.306;12.862;2023-06-26T10:44:25;28.20;95.90
12043;DHT22;6082;49.306;12.862;2023-06-26T10:46:52;28.30;95.10
12043;DHT22;6082;49.306;12.862;2023-06-26T10:49:19;28.40;95.10
12043;DHT22;6082;49.306;12.862;2023-06-26T10:51:50;28.40;94.70
12043;DHT22;6082;49.306;12.862;2023-06-26T10:54:17;28.40;94.60
12043;DHT22;6082;49.306;12.862;2023-06-26T10:56:51;28.40;93.30
12043;DHT22;6082;49.306;12.862;2023-06-26T10:59:23;28.50;94.00
12043;DHT22;6082;49.306;12.862;2023-06-26T11:02:04;28.50;93.40
12043;DHT22;6082;49.306;12.862;2023-06-26T11:04:47;28.60;93.80
12043;DHT22;6082;49.306;12.862;2023-06-26T11:07:22;28.70;93.30
12043;DHT22;6082;49.306;12.862;2023-06-26T11:10:17;28.80;93.20
12043;DHT22;6082;49.306;12.862;2023-06-26T11:12:44;28.80;92.40
12043;DHT22;6082;49.306;12.862;2023-06-26T11:15:18;28.80;92.00
12043;DHT22;6082;49.306;12.862;2023-06-26T11:17:44;28.90;93.00
12043;DHT22;6082;49.306;12.862;2023-06-26T11:20:15;28.90;92.80
12043;DHT22;6082;49.306;12.862;2023-06-26T11:22:43;29.00;91.90
12043;DHT22;6082;49.306;12.862;2023-06-26T11:25:10;29.00;92.90
12043;DHT22;6082;49.306;12.862;2023-06-26T11:27:43;29.10;92.10
12043;DHT22;6082;49.306;12.862;2023-06-26T11:30:23;29.20;91.40
12043;DHT22;6082;49.306;12.862;2023-06-26T11:32:49;29.30;92.00
12043;DHT22;6082;49.306;12.862;2023-06-26T11:35:25;29.40;92.50
12043;DHT22;6082;49.306;12.862;2023-06-26T11:37:59;29.40;92.80
12043;DHT22;6082;49.306;12.862;2023-06-26T11:40:28;29.50;91.60
12043;DHT22;6082;49.306;12.862;2023-06-26T11:43:00;29.60;91.40
12043;DHT22;6082;49.306;12.862;2023-06-26T11:45:28;29.60;91.60
12043;DHT22;6082;49.306;12.862;2023-06-26T11:47:58;29.60;91.20
12043;DHT22;6082;49.306;12.862;2023-06-26T11:50:24;29.60;89.90
12043;DHT22;6082;49.306;12.862;2023-06-26T11:52:58;29.60;88.20
12043;DHT22;6082;49.306;12.862;2023-06-26T11:55:25;29.70;89.90
12043;DHT22;6082;49.306;12.862;2023-06-26T11:57:53;29.80;89.60
12043;DHT22;6082;49.306;12.862;2023-06-26T12:00:20;29.80;88.10
12043;DHT22;6082;49.306;12.862;2023-06-26T12:02:46;29.90;88.50
12043;DHT22;6082;49.306;12.862;2023-06-26T12:05:18;29.80;87.70
12043;DHT22;6082;49.306;12.862;2023-06-26T12:07:48;29.80;86.80
12043;DHT22;6082;49.306;12.862;2023-06-26T12:10:15;29.80;89.10
12043;DHT22;6082;49.306;12.862;2023-06-26T12:12:42;29.90;88.80
12043;DHT22;6082;49.306;12.862;2023-06-26T12:15:09;30.00;88.00
12043;DHT22;6082;49.306;12.862;2023-06-26T12:17:38;30.00;87.20
12043;DHT22;6082;49.306;12.862;2023-06-26T12:20:05;30.10;84.40
12043;DHT22;6082;49.306;12.862;2023-06-26T12:22:35;30.10;84.30
12043;DHT22;6082;49.306;12.862;2023-06-26T12:25:01;30.10;81.70
12043;DHT22;6082;49.306;12.862;2023-06-26T12:27:27;30.20;83.40
12043;DHT22;6082;49.306;12.862;2023-06-26T12:29:54;30.20;82.90
12043;DHT22;6082;49.306;12.862;2023-06-26T12:32:23;30.20;81.50
12043;DHT22;6082;49.306;12.862;2023-06-26T12:34:50;30.30;82.00
12043;DHT22;6082;49.306;12.862;2023-06-26T12:37:16;30.30;80.90
12043;DHT22;6082;49.306;12.862;2023-06-26T12:39:56;30.30;79.30
12043;DHT22;6082;49.306;12.862;2023-06-26T12:42:24;30.30;80.00
12043;DHT22;6082;49.306;12.862;2023-06-26T12:44:51;30.40;80.90
12043;DHT22;6082;49.306;12.862;2023-06-26T12:47:23;30.50;80.60
12043;DHT22;6082;49.306;12.862;2023-06-26T12:49:52;30.50;79.80
12043;DHT22;6082;49.306;12.862;2023-06-26T12:52:18;30.60;81.60
12043;DHT22;6082;49.306;12.862;2023-06-26T12:54:45;30.60;79.70
12043;DHT22;6082;49.306;12.862;2023-06-26T12:57:13;30.60;80.80
12043;DHT22;6082;49.306;12.862;2023-06-26T12:59:40;30.60;81.40
12043;DHT22;6082;49.306;12.862;2023-06-26T13:02:06;30.70;80.10
12043;DHT22;6082;49.306;12.862;2023-06-26T13:04:33;30.70;80.30
12043;DHT22;6082;49.306;12.862;2023-06-26T13:06:58;30.70;77.80
12043;DHT22;6082;49.306;12.862;2023-06-26T13:09:25;30.70;78.00
12043;DHT22;6082;49.306;12.862;2023-06-26T13:11:52;30.80;79.00
12043;DHT22;6082;49.306;12.862;2023-06-26T13:14:18;30.90;79.10
12043;DHT22;6082;49.306;12.862;2023-06-26T13:16:43;30.90;78.10
12043;DHT22;6082;49.306;12.862;2023-06-26T13:19:09;30.90;77.60
12043;DHT22;6082;49.306;12.862;2023-06-26T13:21:35;30.90;79.90
12043;DHT22;6082;49.306;12.862;2023-06-26T13:24:01;31.00;80.10
12043;DHT22;6082;49.306;12.862;2023-06-26T13:26:29;31.10;80.70
12043;DHT22;6082;49.306;12.862;2023-06-26T13:28:55;31.10;78.40
12043;DHT22;6082;49.306;12.862;2023-06-26T13:31:21;31.00;77.10
12043;DHT22;6082;49.306;12.862;2023-06-26T13:33:47;31.10;77.60
12043;DHT22;6082;49.306;12.862;2023-06-26T13:36:18;31.10;77.60
12043;DHT22;6082;49.306;12.862;2023-06-26T13:38:44;31.20;77.30
12043;DHT22;6082;49.306;12.862;2023-06-26T13:41:10;31.10;77.20
12043;DHT22;6082;49.306;12.862;2023-06-26T13:43:36;31.20;76.20
12043;DHT22;6082;49.306;12.862;2023-06-26T13:46:02;31.20;76.00
12043;DHT22;6082;49.306;12.862;2023-06-26T13:48:28;31.20;76.70
12043;DHT22;6082;49.306;12.862;2023-06-26T13:50:54;31.20;75.80
12043;DHT22;6082;49.306;12.862;2023-06-26T13:53:20;31.30;76.20
12043;DHT22;6082;49.306;12.862;2023-06-26T13:55:46;31.30;74.60
12043;DHT22;6082;49.306;12.862;2023-06-26T13:58:12;31.30;73.80
12043;DHT22;6082;49.306;12.862;2023-06-26T14:00:39;31.50;74.60
12043;DHT22;6082;49.306;12.862;2023-06-26T14:03:05;31.50;74.90
12043;DHT22;6082;49.306;12.862;2023-06-26T14:05:36;31.50;72.20
12043;DHT22;6082;49.306;12.862;2023-06-26T14:08:07;31.50;73.40
12043;DHT22;6082;49.306;12.862;2023-06-26T14:10:33;31.50;74.80
12043;DHT22;6082;49.306;12.862;2023-06-26T14:12:59;31.50;75.30
12043;DHT22;6082;49.306;12.862;2023-06-26T14:15:25;31.50;75.00
12043;DHT22;6082;49.306;12.862;2023-06-26T14:17:51;31.50;75.60
12043;DHT22;6082;49.306;12.862;2023-06-26T14:20:17;31.50;74.80
12043;DHT22;6082;49.306;12.862;2023-06-26T14:22:47;31.60;75.50
12043;DHT22;6082;49.306;12.862;2023-06-26T14:25:13;31.60;76.10
12043;DHT22;6082;49.306;12.862;2023-06-26T14:27:42;31.60;74.70
12043;DHT22;6082;49.306;12.862;2023-06-26T14:30:09;31.50;71.90
12043;DHT22;6082;49.306;12.862;2023-06-26T14:32:35;31.30;74.20
12043;DHT22;6082;49.306;12.862;2023-06-26T14:35:02;31.30;72.30
12043;DHT22;6082;49.306;12.862;2023-06-26T14:37:30;31.10;71.60
12043;DHT22;6082;49.306;12.862;2023-06-26T14:39:56;31.00;73.30
12043;DHT22;6082;49.306;12.862;2023-06-26T14:42:22;31.00;73.50
12043;DHT22;6082;49.306;12.862;2023-06-26T14:44:48;31.10;73.10
12043;DHT22;6082;49.306;12.862;2023-06-26T14:47:16;31.20;73.80
12043;DHT22;6082;49.306;12.862;2023-06-26T14:49:42;31.30;73.80
12043;DHT22;6082;49.306;12.862;2023-06-26T14:52:08;31.40;74.50
12043;DHT22;6082;49.306;12.862;2023-06-26T14:54:34;31.50;73.40
12043;DHT22;6082;49.306;12.862;2023-06-26T14:57:06;31.50;74.10
12043;DHT22;6082;49.306;12.862;2023-06-26T14:59:31;31.60;73.40
12043;DHT22;6082;49.306;12.862;2023-06-26T15:01:57;31.60;73.50
12043;DHT22;6082;49.306;12.862;2023-06-26T15:04:23;31.60;73.40
12043;DHT22;6082;49.306;12.862;2023-06-26T15:06:49;31.60;71.90
12043;DHT22;6082;49.306;12.862;2023-06-26T15:09:14;31.70;72.20
12043;DHT22;6082;49.306;12.862;2023-06-26T15:11:43;31.70;71.70
12043;DHT22;6082;49.306;12.862;2023-06-26T15:14:09;31.70;72.00
12043;DHT22;6082;49.306;12.862;2023-06-26T15:16:35;31.70;72.30
12043;DHT22;6082;49.306;12.862;2023-06-26T15:19:01;31.60;72.00
12043;DHT22;6082;49.306;12.862;2023-06-26T15:21:26;31.70;71.70
12043;DHT22;6082;49.306;12.862;2023-06-26T15:23:53;31.80;73.50
12043;DHT22;6082;49.306;12.862;2023-06-26T15:26:19;31.70;72.20
12043;DHT22;6082;49.306;12.862;2023-06-26T15:28:44;31.70;72.30
12043;DHT22;6082;49.306;12.862;2023-06-26T15:31:10;31.70;72.60
12043;DHT22;6082;49.306;12.862;2023-06-26T15:33:36;31.80;73.20
12043;DHT22;6082;49.306;12.862;2023-06-26T15:36:02;31.70;69.10
12043;DHT22;6082;49.306;12.862;2023-06-26T15:38:30;31.70;69.50